Time;durP1;ratioP1;P1;durP2;ratioP2;P2;SDS_P1;SDS_P2;PMS_P1;PMS_P2;Temp;Humidity;BMP_temperature;BMP_pressure;BME280_temperature;BME280_humidity;BME280_pressure;Samples;Min_cycle;Max_cycle;Signal;HPM_P1;HPM_P2
2023/06/06 00:01:51;;;;;;;27.10;15.57;;;12.50;87.30;;;;;;5041228;28;20379;-74
2023/06/06 00:04:17;;;;;;;27.48;16.38;;;12.50;87.30;;;;;;5039313;28;20538;-74
2023/06/06 00:06:44;;;;;;;29.30;16.23;;;12.50;87.40;;;;;;5039872;28;20059;-74
2023/06/06 00:09:13;;;;;;;31.35;16.70;;;12.40;87.50;;;;;;5034721;28;20028;-74
2023/06/06 00:11:44;;;;;;;32.38;17.25;;;12.40;87.50;;;;;;5041554;28;20033;-74
2023/06/06 00:14:12;;;;;;;27.80;16.92;;;12.40;87.60;;;;;;5037043;28;20061;-74
2023/06/06 00:16:37;;;;;;;24.88;17.05;;;12.40;87.70;;;;;;5035272;28;20498;-74
2023/06/06 00:19:03;;;;;;;29.52;17.88;;;12.40;87.70;;;;;;5036577;28;20036;-74
2023/06/06 00:21:32;;;;;;;29.00;17.60;;;12.40;87.80;;;;;;5043339;28;20071;-74
2023/06/06 00:24:01;;;;;;;25.10;16.50;;;12.40;87.80;;;;;;5036244;28;20025;-74
2023/06/06 00:26:27;;;;;;;29.10;18.20;;;12.40;87.80;;;;;;5037283;28;20060;-73
2023/06/06 00:28:53;;;;;;;32.58;18.10;;;12.30;87.90;;;;;;5038208;28;20541;-73
2023/06/06 00:31:19;;;;;;;29.33;17.48;;;12.30;88.10;;;;;;5041121;28;20037;-73
2023/06/06 00:33:45;;;;;;;31.08;17.80;;;12.40;88.00;;;;;;5030827;28;20078;-73
2023/06/06 00:36:11;;;;;;;29.80;18.00;;;12.30;87.90;;;;;;5036122;28;20041;-73
2023/06/06 00:38:37;;;;;;;29.48;18.58;;;12.30;88.00;;;;;;5029060;28;20120;-73
2023/06/06 00:41:03;;;;;;;28.05;17.92;;;12.40;88.00;;;;;;5033600;28;20025;-73
2023/06/06 00:43:28;;;;;;;32.67;18.70;;;12.30;88.00;;;;;;5040376;28;20033;-73
2023/06/06 00:45:55;;;;;;;33.40;20.25;;;12.40;88.00;;;;;;5031385;28;20386;-73
2023/06/06 00:48:22;;;;;;;35.38;19.20;;;12.40;88.00;;;;;;5042003;28;20029;-73
2023/06/06 00:50:50;;;;;;;33.38;19.48;;;12.30;88.10;;;;;;5042157;28;20059;-73
2023/06/06 00:53:16;;;;;;;31.83;19.67;;;12.30;88.20;;;;;;5038152;28;20029;-73
2023/06/06 00:55:43;;;;;;;29.73;19.33;;;12.30;88.20;;;;;;5043497;28;20099;-73
2023/06/06 00:58:10;;;;;;;31.70;19.08;;;12.30;88.20;;;;;;5030529;28;20063;-73
2023/06/06 01:00:38;;;;;;;34.58;19.25;;;12.30;88.10;;;;;;5029765;28;20382;-73
2023/06/06 01:03:09;;;;;;;33.83;20.40;;;12.30;88.10;;;;;;5023649;28;20072;-73
2023/06/06 01:05:35;;;;;;;34.55;19.98;;;12.20;88.30;;;;;;5035792;28;20052;-73
2023/06/06 01:08:01;;;;;;;35.90;20.10;;;12.20;88.50;;;;;;5044177;28;20041;-74
2023/06/06 01:10:28;;;;;;;34.90;21.33;;;12.20;88.50;;;;;;5042243;28;20033;-74
2023/06/06 01:13:07;;;;;;;35.33;21.00;;;12.20;88.60;;;;;;5036511;28;20037;-74
2023/06/06 01:15:48;;;;;;;32.75;20.10;;;12.20;88.50;;;;;;5033101;28;20087;-74
2023/06/06 01:18:13;;;;;;;35.58;22.35;;;12.20;88.50;;;;;;5036007;28;20116;-74
2023/06/06 01:20:41;;;;;;;36.33;22.27;;;12.20;88.60;;;;;;5027932;28;20105;-73
2023/06/06 01:23:08;;;;;;;34.63;21.45;;;12.20;88.40;;;;;;5040619;28;20052;-73
2023/06/06 01:25:35;;;;;;;37.90;22.15;;;12.20;88.40;;;;;;5034057;28;20470;-74
2023/06/06 01:28:04;;;;;;;35.33;21.20;;;12.20;88.50;;;;;;5034183;28;20486;-73
2023/06/06 01:30:32;;;;;;;35.22;21.55;;;12.20;88.50;;;;;;5034604;28;20021;-73
2023/06/06 01:33:21;;;;;;;35.08;22.50;;;12.20;88.50;;;;;;5033180;28;20029;-73
2023/06/06 01:36:15;;;;;;;37.03;21.13;;;12.20;88.40;;;;;;5037052;28;20033;-73
2023/06/06 01:38:53;;;;;;;34.90;21.35;;;12.20;88.40;;;;;;5036499;28;20071;-73
2023/06/06 01:41:20;;;;;;;31.55;20.90;;;12.10;88.30;;;;;;5042360;28;20496;-73
2023/06/06 01:43:50;;;;;;;34.42;20.35;;;12.20;88.40;;;;;;5038881;28;20108;-73
2023/06/06 01:46:16;;;;;;;33.83;21.73;;;12.20;88.40;;;;;;5029396;28;20052;-73
2023/06/06 01:48:43;;;;;;;40.33;22.75;;;12.10;88.50;;;;;;5043005;28;20098;-74
2023/06/06 01:51:09;;;;;;;32.92;22.15;;;12.10;88.50;;;;;;5042786;28;20488;-73
2023/06/06 01:53:34;;;;;;;38.28;21.65;;;12.10;88.40;;;;;;5038037;28;20029;-73
2023/06/06 01:56:01;;;;;;;36.42;21.90;;;12.20;88.40;;;;;;5035610;28;20068;-73
2023/06/06 01:58:26;;;;;;;36.78;21.05;;;12.10;88.30;;;;;;5031175;28;20037;-73
2023/06/06 02:00:52;;;;;;;35.70;21.23;;;12.10;88.30;;;;;;5036677;28;20022;-73
2023/06/06 02:03:18;;;;;;;33.85;21.13;;;12.10;88.30;;;;;;5033864;28;20037;-73
2023/06/06 02:05:43;;;;;;;33.00;20.98;;;12.10;88.30;;;;;;5038694;28;20036;-73
2023/06/06 02:08:10;;;;;;;34.58;21.33;;;12.10;88.30;;;;;;5029670;28;20049;-73
2023/06/06 02:10:36;;;;;;;33.97;21.38;;;12.10;88.30;;;;;;5033438;28;20040;-73
2023/06/06 02:13:01;;;;;;;34.38;22.13;;;12.10;88.20;;;;;;5029923;28;20053;-73
2023/06/06 02:15:29;;;;;;;31.40;19.88;;;12.10;88.20;;;;;;5038398;28;20052;-73
2023/06/06 02:17:55;;;;;;;32.28;20.85;;;12.10;88.00;;;;;;5039842;28;20041;-73
2023/06/06 02:20:20;;;;;;;31.88;19.52;;;12.10;87.90;;;;;;5036426;28;20120;-73
2023/06/06 02:22:46;;;;;;;33.25;20.25;;;12.10;87.90;;;;;;5036889;28;20156;-73
2023/06/06 02:25:13;;;;;;;30.08;19.63;;;12.10;88.00;;;;;;5034391;28;20463;-73
2023/06/06 02:27:39;;;;;;;30.17;19.35;;;12.10;87.90;;;;;;5031576;28;20090;-73
2023/06/06 02:30:09;;;;;;;28.75;19.10;;;12.10;87.80;;;;;;5038241;28;20048;-73
2023/06/06 02:32:34;;;;;;;27.13;18.55;;;12.10;87.60;;;;;;5036388;28;20482;-73
2023/06/06 02:35:01;;;;;;;31.15;19.88;;;12.00;87.60;;;;;;5036979;28;20060;-73
2023/06/06 02:37:26;;;;;;;31.67;20.13;;;12.00;87.70;;;;;;5042815;28;20519;-73
2023/06/06 02:39:53;;;;;;;28.48;19.38;;;12.00;87.70;;;;;;5045387;28;20029;-73
2023/06/06 02:42:19;;;;;;;30.95;19.13;;;12.00;87.60;;;;;;5039424;28;20036;-73
2023/06/06 02:44:45;;;;;;;28.38;18.63;;;12.00;87.70;;;;;;5039409;28;20029;-73
2023/06/06 02:47:11;;;;;;;27.10;17.83;;;12.00;87.50;;;;;;5038356;28;20072;-74
2023/06/06 02:49:36;;;;;;;28.60;18.08;;;12.00;87.50;;;;;;5040280;28;20052;-73
2023/06/06 02:52:02;;;;;;;26.60;18.15;;;12.00;87.40;;;;;;5039508;28;20098;-74
2023/06/06 02:54:28;;;;;;;30.48;19.77;;;12.00;87.30;;;;;;5040721;28;20582;-72
2023/06/06 02:56:53;;;;;;;29.15;19.67;;;12.00;87.20;;;;;;5045078;28;20590;-72
2023/06/06 02:59:19;;;;;;;29.25;18.67;;;12.00;87.10;;;;;;5039248;28;20047;-74
2023/06/06 03:01:47;;;;;;;27.42;18.38;;;12.00;87.20;;;;;;5040806;28;20052;-74
2023/06/06 03:04:14;;;;;;;28.38;18.38;;;12.00;87.10;;;;;;5044503;28;20086;-74
2023/06/06 03:06:40;;;;;;;29.88;18.67;;;11.90;87.20;;;;;;5046312;28;20476;-74
2023/06/06 03:09:06;;;;;;;29.48;18.60;;;11.90;87.20;;;;;;5040423;28;20756;-74
2023/06/06 03:11:34;;;;;;;31.88;19.67;;;11.90;87.30;;;;;;5044391;28;20057;-74
2023/06/06 03:14:00;;;;;;;28.10;19.80;;;11.90;87.30;;;;;;5041395;28;20045;-74
2023/06/06 03:16:26;;;;;;;26.25;18.52;;;11.90;87.40;;;;;;5034852;28;20034;-74
2023/06/06 03:19:03;;;;;;;28.63;19.33;;;11.90;87.40;;;;;;5038423;28;20027;-74
2023/06/06 03:21:29;;;;;;;29.90;20.10;;;11.90;87.30;;;;;;5045238;28;20397;-73
2023/06/06 03:23:55;;;;;;;29.55;18.15;;;11.90;87.20;;;;;;5035295;28;20017;-74
2023/06/06 03:26:26;;;;;;;25.15;18.65;;;11.80;87.30;;;;;;5038780;28;20092;-74
2023/06/06 03:28:52;;;;;;;30.63;19.38;;;11.90;87.30;;;;;;5037473;28;20464;-74
2023/06/06 03:31:23;;;;;;;31.88;19.17;;;11.80;87.40;;;;;;5043882;28;20032;-74
2023/06/06 03:33:52;;;;;;;29.48;18.63;;;11.80;87.40;;;;;;5041417;28;20016;-74
2023/06/06 03:36:19;;;;;;;28.23;18.98;;;11.80;87.50;;;;;;5040358;28;20368;-73
2023/06/06 03:38:45;;;;;;;32.95;19.83;;;11.80;87.50;;;;;;5039277;28;20021;-75
2023/06/06 03:41:10;;;;;;;32.10;20.00;;;11.90;87.40;;;;;;5042871;28;20086;-74
2023/06/06 03:43:36;;;;;;;28.27;18.85;;;11.90;87.40;;;;;;5039905;28;20043;-74
2023/06/06 03:46:02;;;;;;;27.63;18.95;;;11.80;87.30;;;;;;5041636;28;20021;-74
2023/06/06 03:48:28;;;;;;;29.05;18.67;;;11.90;87.30;;;;;;5038267;28;20029;-74
2023/06/06 03:50:53;;;;;;;25.92;18.52;;;11.90;87.30;;;;;;5042390;28;20021;-74
2023/06/06 03:53:19;;;;;;;28.67;19.58;;;11.90;87.30;;;;;;5045476;28;20453;-75
2023/06/06 03:55:46;;;;;;;31.00;19.55;;;11.90;87.30;;;;;;5045336;28;20496;-74
2023/06/06 03:58:15;;;;;;;27.67;19.20;;;11.90;87.30;;;;;;5042002;28;20079;-74
2023/06/06 04:00:42;;;;;;;27.95;19.48;;;11.90;87.40;;;;;;5031857;28;20041;-74
2023/06/06 04:03:08;;;;;;;26.95;18.42;;;11.90;87.40;;;;;;5036747;28;20523;-73
2023/06/06 04:05:34;;;;;;;27.85;19.63;;;12.00;87.30;;;;;;5038263;28;20037;-73
2023/06/06 04:08:00;;;;;;;31.55;20.50;;;12.00;87.20;;;;;;5038265;28;20045;-73
2023/06/06 04:10:26;;;;;;;30.33;19.40;;;12.00;87.20;;;;;;5036401;28;20467;-73
2023/06/06 04:12:52;;;;;;;29.38;19.25;;;12.10;87.10;;;;;;5034683;28;20140;-73
2023/06/06 04:15:18;;;;;;;27.95;19.10;;;12.10;87.00;;;;;;5034894;28;20886;-73
2023/06/06 04:17:44;;;;;;;27.48;18.55;;;12.10;86.80;;;;;;5043878;28;20504;-73
2023/06/06 04:20:11;;;;;;;28.25;18.35;;;12.10;86.80;;;;;;5043271;28;20081;-73
2023/06/06 04:22:37;;;;;;;26.50;18.40;;;12.10;86.90;;;;;;5029521;28;20052;-73
2023/06/06 04:25:02;;;;;;;27.70;18.52;;;12.10;87.00;;;;;;5040945;28;20477;-73
2023/06/06 04:27:28;;;;;;;26.42;17.80;;;12.20;86.80;;;;;;5036180;28;20036;-73
2023/06/06 04:29:57;;;;;;;27.60;18.63;;;12.30;86.70;;;;;;5030567;28;20147;-73
2023/06/06 04:32:23;;;;;;;27.13;18.27;;;12.30;86.60;;;;;;5038541;28;20477;-73
2023/06/06 04:34:51;;;;;;;26.35;18.98;;;12.40;86.50;;;;;;5042586;28;20111;-73
2023/06/06 04:37:20;;;;;;;28.77;18.08;;;12.40;86.20;;;;;;5039593;28;20543;-74
2023/06/06 04:39:52;;;;;;;29.73;17.63;;;12.40;86.00;;;;;;5035820;28;20086;-74
2023/06/06 04:42:19;;;;;;;26.98;17.92;;;12.50;86.00;;;;;;5038828;28;20102;-73
2023/06/06 04:44:46;;;;;;;26.45;17.52;;;12.50;86.10;;;;;;5038802;28;20035;-73
2023/06/06 04:47:12;;;;;;;28.13;18.98;;;12.60;86.00;;;;;;5039301;28;20090;-74
2023/06/06 04:49:39;;;;;;;27.27;18.92;;;12.60;85.90;;;;;;5038607;28;20112;-73
2023/06/06 04:52:10;;;;;;;25.33;17.63;;;12.60;85.90;;;;;;5036151;28;20481;-73
2023/06/06 04:54:40;;;;;;;26.20;16.80;;;12.60;86.10;;;;;;5035242;28;20036;-73
2023/06/06 04:57:15;;;;;;;27.42;18.73;;;12.60;86.20;;;;;;5041346;28;20037;-73
2023/06/06 04:59:44;;;;;;;26.15;18.25;;;12.60;85.90;;;;;;5038921;28;20126;-73
2023/06/06 05:02:10;;;;;;;25.08;18.42;;;12.70;85.80;;;;;;5028354;28;20037;-73
2023/06/06 05:04:37;;;;;;;28.52;18.02;;;12.80;85.60;;;;;;5033355;28;20037;-73
2023/06/06 05:07:02;;;;;;;28.60;18.95;;;12.90;85.30;;;;;;5039655;28;20090;-73
2023/06/06 05:09:28;;;;;;;28.42;17.42;;;13.00;85.10;;;;;;5039417;28;20413;-73
2023/06/06 05:11:54;;;;;;;26.10;16.58;;;13.30;84.50;;;;;;5037426;28;20029;-73
2023/06/06 05:14:23;;;;;;;24.35;16.08;;;14.20;82.10;;;;;;5041947;28;20029;-73
2023/06/06 05:16:51;;;;;;;23.60;16.30;;;14.60;79.50;;;;;;5038162;28;20040;-73
2023/06/06 05:19:17;;;;;;;22.40;15.02;;;15.10;77.80;;;;;;5029100;28;20147;-73
2023/06/06 05:21:43;;;;;;;20.02;14.18;;;15.20;76.80;;;;;;5037418;28;20104;-73
2023/06/06 05:24:08;;;;;;;23.75;15.60;;;15.50;76.10;;;;;;5038017;28;20064;-74
2023/06/06 05:26:35;;;;;;;22.13;14.73;;;16.00;74.50;;;;;;5032816;28;20478;-73
2023/06/06 05:29:00;;;;;;;19.40;14.27;;;15.90;74.60;;;;;;5028030;28;20617;-74
2023/06/06 05:31:26;;;;;;;19.90;14.20;;;16.10;74.30;;;;;;5033674;28;20029;-74
2023/06/06 05:33:53;;;;;;;19.38;14.02;;;16.20;72.90;;;;;;5039901;28;20017;-74
2023/06/06 05:36:19;;;;;;;19.73;14.30;;;16.20;72.60;;;;;;5031861;28;20055;-73
2023/06/06 05:38:45;;;;;;;19.85;14.43;;;16.10;72.90;;;;;;5042462;28;20029;-73
2023/06/06 05:41:10;;;;;;;20.20;14.10;;;16.00;73.60;;;;;;5030650;28;20040;-73
2023/06/06 05:43:36;;;;;;;21.90;14.38;;;16.00;73.30;;;;;;5032072;28;20040;-73
2023/06/06 05:46:02;;;;;;;23.70;14.70;;;16.00;74.20;;;;;;5035251;28;20025;-73
2023/06/06 05:48:28;;;;;;;21.25;14.88;;;16.00;73.70;;;;;;5034864;28;20037;-74
2023/06/06 05:50:54;;;;;;;19.55;14.80;;;16.10;73.50;;;;;;5033382;28;20111;-74
2023/06/06 05:53:21;;;;;;;27.63;14.85;;;16.10;72.90;;;;;;5039911;28;20124;-72
2023/06/06 05:55:47;;;;;;;22.55;15.60;;;15.60;75.00;;;;;;5034094;28;20488;-74
2023/06/06 05:58:13;;;;;;;21.48;14.18;;;15.00;76.70;;;;;;5033769;28;20064;-72
2023/06/06 06:00:39;;;;;;;20.90;14.57;;;15.10;77.20;;;;;;5034047;28;20355;-74
2023/06/06 06:03:07;;;;;;;23.27;15.05;;;14.70;77.50;;;;;;5031686;28;20190;-74
2023/06/06 06:05:33;;;;;;;24.90;16.27;;;14.70;78.40;;;;;;5040502;28;20440;-74
2023/06/06 06:08:00;;;;;;;21.73;15.10;;;14.50;79.30;;;;;;5025871;28;20374;-74
2023/06/06 06:10:30;;;;;;;22.33;15.02;;;14.60;79.50;;;;;;5039629;28;20033;-74
2023/06/06 06:12:56;;;;;;;22.27;16.15;;;14.70;79.40;;;;;;5041809;28;20128;-72
2023/06/06 06:15:22;;;;;;;20.27;14.52;;;14.90;78.80;;;;;;5042649;28;20449;-72
2023/06/06 06:17:48;;;;;;;21.08;15.52;;;15.00;77.80;;;;;;5044486;28;20151;-74
2023/06/06 06:20:16;;;;;;;22.42;15.45;;;14.70;78.20;;;;;;5039259;28;20580;-73
2023/06/06 06:22:43;;;;;;;23.63;16.10;;;14.80;79.10;;;;;;5033833;28;20109;-77
2023/06/06 06:25:12;;;;;;;21.33;14.93;;;15.00;78.80;;;;;;5033621;28;20099;-74
2023/06/06 06:27:38;;;;;;;21.27;14.52;;;15.30;78.10;;;;;;5034465;28;20035;-75
2023/06/06 06:30:04;;;;;;;22.98;14.48;;;15.30;77.50;;;;;;5039713;28;20048;-75
2023/06/06 06:32:34;;;;;;;20.35;14.18;;;15.40;76.90;;;;;;5042604;28;20036;-75
2023/06/06 06:35:01;;;;;;;20.15;14.98;;;15.50;76.20;;;;;;5045242;28;20021;-75
2023/06/06 06:37:29;;;;;;;22.33;14.77;;;15.20;76.80;;;;;;5042054;28;20707;-75
2023/06/06 06:39:58;;;;;;;22.63;15.32;;;15.10;77.10;;;;;;5045920;28;20134;-75
2023/06/06 06:42:24;;;;;;;22.98;14.10;;;15.10;77.60;;;;;;5045141;28;20382;-75
2023/06/06 06:44:50;;;;;;;22.27;14.48;;;15.10;77.90;;;;;;5041439;28;20215;-74
2023/06/06 06:47:17;;;;;;;21.90;14.55;;;15.10;77.70;;;;;;5043872;28;20140;-75
2023/06/06 06:49:42;;;;;;;19.65;13.35;;;15.10;77.50;;;;;;5040132;28;20032;-75
2023/06/06 06:52:11;;;;;;;21.65;14.63;;;15.30;77.40;;;;;;5039367;28;20021;-75
2023/06/06 06:54:57;;;;;;;19.70;14.23;;;15.50;76.60;;;;;;5045620;28;20570;-75
2023/06/06 06:57:29;;;;;;;20.27;14.43;;;15.50;76.90;;;;;;5038880;28;20033;-75
2023/06/06 07:00:11;;;;;;;23.70;15.15;;;15.80;76.50;;;;;;5042898;28;20052;-75
2023/06/06 07:02:39;;;;;;;19.63;13.98;;;15.90;75.40;;;;;;5039183;28;20401;-75
2023/06/06 07:05:06;;;;;;;18.67;12.90;;;15.90;74.70;;;;;;5039277;28;20021;-75
2023/06/06 07:07:31;;;;;;;19.65;13.48;;;16.00;74.80;;;;;;5043516;28;20037;-76
2023/06/06 07:09:57;;;;;;;19.75;13.40;;;16.10;74.90;;;;;;5044217;28;20563;-74
2023/06/06 07:12:23;;;;;;;21.10;13.75;;;16.10;74.40;;;;;;5045188;28;20060;-75
2023/06/06 07:14:48;;;;;;;20.63;13.38;;;16.10;74.50;;;;;;5040716;28;20385;-75
2023/06/06 07:17:17;;;;;;;19.92;12.90;;;16.40;73.40;;;;;;5039991;28;20083;-77
2023/06/06 07:19:43;;;;;;;20.73;13.18;;;16.30;73.30;;;;;;5066942;28;20941;-76
2023/06/06 07:22:10;;;;;;;20.42;13.43;;;16.50;73.40;;;;;;5029212;28;20087;-74
2023/06/06 07:24:36;;;;;;;20.02;12.77;;;16.40;73.10;;;;;;5042250;28;20037;-74
2023/06/06 07:27:02;;;;;;;22.98;14.10;;;16.50;73.00;;;;;;5040707;28;20040;-76
2023/06/06 07:29:29;;;;;;;18.55;12.82;;;16.50;73.00;;;;;;5034793;28;20044;-75
2023/06/06 07:31:55;;;;;;;17.48;12.82;;;16.60;73.30;;;;;;5040287;28;20068;-75
2023/06/06 07:34:21;;;;;;;19.02;12.48;;;16.90;72.90;;;;;;5044236;28;20017;-75
2023/06/06 07:36:47;;;;;;;23.02;13.38;;;17.00;72.40;;;;;;5041884;28;20507;-75
2023/06/06 07:39:13;;;;;;;21.38;12.80;;;17.10;72.20;;;;;;5036838;28;20079;-75
2023/06/06 07:41:39;;;;;;;19.58;12.43;;;17.10;71.10;;;;;;5041687;28;20033;-75
2023/06/06 07:44:05;;;;;;;17.40;12.10;;;17.10;70.90;;;;;;5029551;28;20029;-75
2023/06/06 07:46:31;;;;;;;21.67;12.80;;;17.20;70.80;;;;;;5037099;28;20051;-75
2023/06/06 07:48:58;;;;;;;21.75;13.02;;;17.30;70.40;;;;;;5040023;28;20434;-76
2023/06/06 07:51:23;;;;;;;21.30;12.40;;;17.10;70.30;;;;;;5043041;28;20277;-76
2023/06/06 07:53:49;;;;;;;20.38;12.68;;;17.30;70.60;;;;;;5040245;28;20021;-75
2023/06/06 07:56:16;;;;;;;17.70;11.25;;;17.50;70.10;;;;;;5035605;28;20114;-75
2023/06/06 07:58:55;;;;;;;20.23;12.48;;;17.70;70.00;;;;;;5036911;28;20032;-75
2023/06/06 08:01:21;;;;;;;18.45;11.93;;;17.80;69.10;;;;;;5036488;28;20397;-75
2023/06/06 08:03:50;;;;;;;19.70;12.88;;;17.30;69.30;;;;;;5032941;28;20025;-75
2023/06/06 08:06:20;;;;;;;19.83;12.43;;;17.50;70.90;;;;;;5037060;28;20056;-77
2023/06/06 08:08:46;;;;;;;19.85;12.45;;;17.60;69.40;;;;;;5032080;28;20135;-76
2023/06/06 08:11:15;;;;;;;17.75;12.10;;;17.60;69.40;;;;;;5032936;28;20059;-74
2023/06/06 08:13:41;;;;;;;17.20;11.75;;;17.80;69.00;;;;;;5041533;28;20076;-75
2023/06/06 08:16:08;;;;;;;19.58;12.05;;;17.80;69.10;;;;;;5041732;28;20560;-75
2023/06/06 08:18:33;;;;;;;17.10;12.23;;;18.00;68.90;;;;;;5043589;28;20033;-76
2023/06/06 08:20:59;;;;;;;18.65;12.20;;;18.20;68.10;;;;;;5040000;28;20061;-75
2023/06/06 08:23:25;;;;;;;20.40;13.23;;;18.00;67.90;;;;;;5043908;28;20440;-76
2023/06/06 08:25:55;;;;;;;18.33;12.25;;;18.10;67.80;;;;;;5042338;28;20036;-76
2023/06/06 08:28:22;;;;;;;17.77;11.55;;;18.30;67.30;;;;;;5044037;28;20024;-76
2023/06/06 08:30:48;;;;;;;17.33;11.02;;;18.30;67.70;;;;;;5037795;28;20037;-77
2023/06/06 08:33:14;;;;;;;16.27;11.35;;;18.50;68.00;;;;;;5032000;28;20373;-75
2023/06/06 08:35:39;;;;;;;19.45;12.18;;;18.60;66.50;;;;;;5033244;28;20474;-76
2023/06/06 08:38:05;;;;;;;20.42;12.48;;;18.50;66.30;;;;;;5042517;28;20124;-76
2023/06/06 08:40:31;;;;;;;17.05;11.57;;;18.20;67.40;;;;;;5031345;28;20040;-75
2023/06/06 08:42:58;;;;;;;19.30;11.45;;;18.60;67.60;;;;;;5037692;28;20339;-75
2023/06/06 08:45:24;;;;;;;21.50;12.95;;;18.60;66.10;;;;;;5035852;28;20071;-77
2023/06/06 08:47:53;;;;;;;18.35;11.75;;;18.50;67.00;;;;;;5033548;28;20053;-75
2023/06/06 08:50:21;;;;;;;17.38;11.20;;;18.90;66.00;;;;;;5040548;28;20013;-74
2023/06/06 08:52:48;;;;;;;18.80;11.68;;;19.40;64.60;;;;;;5024007;28;20124;-75
2023/06/06 08:55:14;;;;;;;20.35;12.15;;;19.50;65.00;;;;;;5033599;28;20096;-75
2023/06/06 08:57:43;;;;;;;16.13;10.88;;;19.60;63.10;;;;;;5034334;28;20541;-75
2023/06/06 09:00:20;;;;;;;18.52;11.65;;;19.80;63.90;;;;;;5037994;28;20109;-74
2023/06/06 09:02:47;;;;;;;18.45;11.68;;;19.70;63.90;;;;;;5031297;28;20065;-75
2023/06/06 09:05:16;;;;;;;17.20;10.88;;;19.50;64.00;;;;;;5029547;28;21313;-75
2023/06/06 09:07:42;;;;;;;17.35;11.50;;;19.60;64.20;;;;;;5037170;28;20037;-76
2023/06/06 09:10:08;;;;;;;16.65;11.35;;;19.60;63.90;;;;;;5033949;28;20043;-75
2023/06/06 09:12:45;;;;;;;19.73;11.40;;;19.80;64.20;;;;;;5036165;28;20040;-76
2023/06/06 09:15:11;;;;;;;16.60;10.95;;;19.70;64.50;;;;;;5031667;28;20126;-77
2023/06/06 09:17:38;;;;;;;17.92;10.90;;;20.10;63.60;;;;;;5029345;28;20929;-75
2023/06/06 09:20:08;;;;;;;16.67;11.68;;;20.00;62.50;;;;;;5023874;28;20762;-73
2023/06/06 09:22:43;;;;;;;17.30;11.15;;;20.30;62.90;;;;;;5032646;28;20110;-74
2023/06/06 09:25:26;;;;;;;15.73;11.95;;;20.00;63.00;;;;;;5032422;28;20036;-74
2023/06/06 09:27:59;;;;;;;16.83;12.25;;;20.10;62.70;;;;;;5035964;28;20473;-73
2023/06/06 09:30:27;;;;;;;17.63;11.60;;;20.20;62.50;;;;;;5033674;28;20548;-75
2023/06/06 09:33:04;;;;;;;15.52;11.23;;;20.30;63.20;;;;;;5024583;28;20033;-76
2023/06/06 09:35:30;;;;;;;14.63;11.00;;;20.20;62.50;;;;;;5030116;28;20024;-76
2023/06/06 09:38:16;;;;;;;19.50;12.25;;;20.50;62.80;;;;;;5029202;28;20189;-76
2023/06/06 09:40:47;;;;;;;19.65;12.00;;;20.50;61.70;;;;;;5026709;28;20029;-76
2023/06/06 09:43:15;;;;;;;17.77;11.50;;;20.60;61.30;;;;;;5033752;28;20041;-73
2023/06/06 09:45:51;;;;;;;15.30;11.88;;;20.50;62.10;;;;;;5040024;28;20136;-73
2023/06/06 09:48:29;;;;;;;15.52;11.25;;;20.50;62.20;;;;;;5048122;28;20036;-74
2023/06/06 09:50:56;;;;;;;17.75;11.50;;;20.70;62.30;;;;;;5044819;28;20029;-74
2023/06/06 09:53:29;;;;;;;18.02;11.70;;;20.70;61.50;;;;;;5057507;28;20032;-74
2023/06/06 09:56:03;;;;;;;19.50;12.75;;;20.10;63.40;;;;;;5060977;28;20039;-74
2023/06/06 09:58:31;;;;;;;22.67;13.75;;;20.40;62.30;;;;;;5053015;28;20028;-73
2023/06/06 10:00:58;;;;;;;19.30;12.40;;;20.60;63.50;;;;;;5046364;28;20434;-74
2023/06/06 10:03:25;;;;;;;18.80;13.15;;;20.60;61.80;;;;;;5049761;28;20481;-74
2023/06/06 10:05:52;;;;;;;19.90;12.63;;;20.90;61.40;;;;;;5045965;28;20052;-74
2023/06/06 10:08:19;;;;;;;18.98;12.85;;;20.90;61.30;;;;;;5051989;28;20076;-74
2023/06/06 10:10:49;;;;;;;21.15;13.60;;;20.50;61.70;;;;;;5054480;28;20021;-73
2023/06/06 10:13:19;;;;;;;18.90;13.32;;;20.70;62.00;;;;;;5053846;28;20045;-73
2023/06/06 10:15:45;;;;;;;19.52;14.90;;;20.90;61.90;;;;;;5047573;28;20036;-74
2023/06/06 10:18:12;;;;;;;19.98;16.95;;;21.30;62.10;;;;;;5054730;28;20028;-75
2023/06/06 10:20:38;;;;;;;18.35;14.20;;;21.50;60.30;;;;;;5046305;28;20039;-74
2023/06/06 10:23:04;;;;;;;18.75;14.85;;;21.60;60.50;;;;;;5044519;28;20071;-74
2023/06/06 10:25:30;;;;;;;20.27;16.35;;;21.20;60.60;;;;;;5045824;28;20072;-74
2023/06/06 10:28:05;;;;;;;20.98;18.63;;;21.60;60.20;;;;;;5055079;28;20037;-76
2023/06/06 10:30:37;;;;;;;19.90;17.80;;;21.60;60.20;;;;;;5053482;28;20946;-75
2023/06/06 10:33:11;;;;;;;21.75;18.48;;;21.80;60.60;;;;;;5041831;28;20131;-74
2023/06/06 10:35:40;;;;;;;24.52;17.60;;;21.80;59.40;;;;;;5043094;28;20143;-74
2023/06/06 10:38:08;;;;;;;22.35;19.65;;;21.80;60.30;;;;;;5046977;28;20528;-76
2023/06/06 10:41:00;;;;;;;20.10;17.92;;;21.80;59.50;;;;;;5049260;28;20244;-76
2023/06/06 10:43:35;;;;;;;21.55;17.23;;;21.80;60.20;;;;;;5051376;28;20071;-75
2023/06/06 10:46:04;;;;;;;19.65;16.17;;;21.90;60.10;;;;;;5054829;28;20044;-76
2023/06/06 10:48:39;;;;;;;22.10;17.67;;;22.20;58.90;;;;;;5049439;28;20036;-75
2023/06/06 10:51:25;;;;;;;22.40;19.05;;;22.10;58.40;;;;;;5052076;28;20059;-75
2023/06/06 10:54:26;;;;;;;23.45;18.98;;;22.10;59.20;;;;;;5051215;28;20489;-75
2023/06/06 10:56:54;;;;;;;25.15;19.42;;;22.30;59.40;;;;;;5049346;28;20037;-76
2023/06/06 10:59:34;;;;;;;20.92;17.08;;;22.60;57.70;;;;;;5045797;28;20025;-75
2023/06/06 11:02:00;;;;;;;23.20;18.88;;;22.60;58.20;;;;;;5047416;28;20055;-75
2023/06/06 11:04:29;;;;;;;24.00;20.25;;;22.80;57.30;;;;;;5046516;28;20745;-75
2023/06/06 11:07:00;;;;;;;24.70;18.75;;;22.60;58.20;;;;;;5047357;28;20033;-76
2023/06/06 11:09:29;;;;;;;20.65;17.88;;;22.60;58.30;;;;;;5043627;28;20155;-76
2023/06/06 11:12:13;;;;;;;22.83;18.83;;;22.60;57.80;;;;;;5046662;28;20495;-76
2023/06/06 11:15:03;;;;;;;21.52;18.38;;;22.50;58.20;;;;;;5053246;28;20065;-76
2023/06/06 11:17:45;;;;;;;21.00;17.73;;;22.60;58.30;;;;;;5043074;28;20047;-73
2023/06/06 11:20:19;;;;;;;22.60;17.23;;;22.70;57.40;;;;;;5042195;28;20040;-73
2023/06/06 11:23:04;;;;;;;22.17;16.95;;;22.50;58.50;;;;;;5043439;28;20476;-74
2023/06/06 11:25:31;;;;;;;20.50;18.10;;;22.60;57.80;;;;;;5047255;28;20071;-75
2023/06/06 11:27:58;;;;;;;19.05;16.95;;;22.80;57.30;;;;;;5041274;28;20127;-75
2023/06/06 11:30:24;;;;;;;19.75;15.20;;;22.60;58.00;;;;;;5041881;28;20471;-75
2023/06/06 11:32:53;;;;;;;18.70;16.67;;;22.50;56.90;;;;;;5043991;28;20029;-75
2023/06/06 11:35:20;;;;;;;19.80;17.00;;;22.50;58.20;;;;;;5045665;28;20033;-74
2023/06/06 11:37:46;;;;;;;22.17;16.58;;;22.40;58.10;;;;;;5057578;28;20429;-75
2023/06/06 11:40:12;;;;;;;18.60;15.60;;;22.70;57.90;;;;;;5043326;28;20404;-75
2023/06/06 11:42:43;;;;;;;19.83;15.13;;;22.90;56.80;;;;;;5048784;28;20086;-74
2023/06/06 11:45:16;;;;;;;18.38;15.00;;;23.20;56.70;;;;;;5044660;28;20036;-74
2023/06/06 11:47:42;;;;;;;19.92;14.80;;;23.40;56.20;;;;;;5050931;28;20056;-74
2023/06/06 11:50:09;;;;;;;19.27;13.95;;;23.40;55.00;;;;;;5050033;28;20484;-74
2023/06/06 11:52:50;;;;;;;17.77;13.52;;;23.60;56.70;;;;;;5044752;28;20087;-74
2023/06/06 11:55:17;;;;;;;18.58;14.75;;;23.60;56.00;;;;;;5053406;28;20043;-74
2023/06/06 11:57:43;;;;;;;16.52;13.13;;;23.60;54.90;;;;;;5049297;28;20036;-74
2023/06/06 12:00:18;;;;;;;21.17;15.95;;;23.70;54.80;;;;;;5053680;28;20463;-74
2023/06/06 12:02:51;;;;;;;19.75;14.38;;;23.00;55.50;;;;;;5040260;28;20558;-74
2023/06/06 12:05:24;;;;;;;19.67;13.82;;;23.00;57.00;;;;;;5042842;28;20757;-74
2023/06/06 12:07:50;;;;;;;22.42;14.15;;;23.30;56.60;;;;;;5046354;28;20495;-74
2023/06/06 12:10:28;;;;;;;16.98;12.20;;;23.40;56.10;;;;;;5056268;28;20025;-75
2023/06/06 12:12:54;;;;;;;17.08;12.65;;;23.10;55.70;;;;;;5040983;28;20376;-74
2023/06/06 12:15:20;;;;;;;15.65;11.90;;;23.00;55.10;;;;;;5054278;28;20037;-75
2023/06/06 12:17:46;;;;;;;18.20;14.73;;;23.30;54.70;;;;;;5048036;28;20643;-74
2023/06/06 12:20:21;;;;;;;18.15;11.70;;;23.40;55.30;;;;;;5048094;28;20356;-73
2023/06/06 12:22:48;;;;;;;18.40;11.57;;;23.30;53.70;;;;;;5048396;28;20040;-74
2023/06/06 12:25:24;;;;;;;17.65;10.98;;;23.30;55.50;;;;;;5060199;28;20036;-74
2023/06/06 12:27:53;;;;;;;17.15;12.80;;;23.20;54.70;;;;;;5048292;28;20047;-74
2023/06/06 12:30:30;;;;;;;20.55;11.02;;;23.50;53.40;;;;;;5059389;28;20558;-75
2023/06/06 12:32:57;;;;;;;17.85;11.82;;;23.60;54.50;;;;;;5038199;28;20119;-74
2023/06/06 12:35:23;;;;;;;18.02;11.82;;;23.90;54.40;;;;;;5038125;28;20386;-74